sensor_id;sensor_type;location;lat;lon;timestamp;pressure;altitude;pressure_sealevel;temperature;humidity
3590;BME280;1809;48.470;9.226;2024-01-10T00:00:10;-15998.03;;;-6.11;100.00
3590;BME280;1809;48.470;9.226;2024-01-10T00:02:35;-15998.03;;;-6.11;100.00
3590;BME280;1809;48.470;9.226;2024-01-10T00:05:01;-15997.91;;;-6.12;100.00
3590;BME280;1809;48.470;9.226;2024-01-10T00:07:26;-15999.16;;;-6.07;100.00
3590;BME280;1809;48.470;9.226;2024-01-10T00:09:51;-15998.03;;;-6.11;100.00
3590;BME280;1809;48.470;9.226;2024-01-10T00:12:17;-16000.59;;;-6.02;100.00
3590;BME280;1809;48.470;9.226;2024-01-10T00:14:42;-16001.44;;;-5.99;100.00
3590;BME280;1809;48.470;9.226;2024-01-10T00:17:08;-16002.13;;;-5.96;100.00
3590;BME280;1809;48.470;9.226;2024-01-10T00:19:33;-16002.97;;;-5.93;100.00
3590;BME280;1809;48.470;9.226;2024-01-10T00:21:58;-16003.81;;;-5.90;100.00
3590;BME280;1809;48.470;9.226;2024-01-10T00:24:23;-16003.69;;;-5.91;100.00
3590;BME280;1809;48.470;9.226;2024-01-10T00:26:49;-16004.41;;;-5.88;100.00
3590;BME280;1809;48.470;9.226;2024-01-10T00:29:14;-16003.69;;;-5.91;100.00
3590;BME280;1809;48.470;9.226;2024-01-10T00:31:40;-16002.69;;;-5.94;100.00
3590;BME280;1809;48.470;9.226;2024-01-10T00:34:05;-16003.69;;;-5.91;100.00
3590;BME280;1809;48.470;9.226;2024-01-10T00:36:31;-16006.50;;;-5.81;100.00
3590;BME280;1809;48.470;9.226;2024-01-10T00:38:56;-16008.75;;;-5.73;100.00
3590;BME280;1809;48.470;9.226;2024-01-10T00:41:21;-16009.31;;;-5.71;100.00
3590;BME280;1809;48.470;9.226;2024-01-10T00:43:47;-16010.75;;;-5.66;100.00
3590;BME280;1809;48.470;9.226;2024-01-10T00:46:12;-16013.28;;;-5.57;100.00
3590;BME280;1809;48.470;9.226;2024-01-10T00:48:37;-16012.16;;;-5.61;100.00
3590;BME280;1809;48.470;9.226;2024-01-10T00:51:03;-16015.25;;;-5.50;100.00
3590;BME280;1809;48.470;9.226;2024-01-10T00:53:33;-16014.56;;;-5.52;100.00
3590;BME280;1809;48.470;9.226;2024-01-10T00:55:59;-16012.16;;;-5.61;100.00
3590;BME280;1809;48.470;9.226;2024-01-10T00:58:24;-16013.56;;;-5.56;100.00
3590;BME280;1809;48.470;9.226;2024-01-10T01:00:49;-16012.72;;;-5.59;100.00
3590;BME280;1809;48.470;9.226;2024-01-10T01:03:15;-16012.44;;;-5.60;100.00
3590;BME280;1809;48.470;9.226;2024-01-10T01:05:40;-16015.53;;;-5.49;100.00
3590;BME280;1809;48.470;9.226;2024-01-10T01:08:06;-16013.56;;;-5.56;100.00
3590;BME280;1809;48.470;9.226;2024-01-10T01:10:32;-16014.97;;;-5.51;100.00
3590;BME280;1809;48.470;9.226;2024-01-10T01:12:57;-16015.53;;;-5.49;100.00
3590;BME280;1809;48.470;9.226;2024-01-10T01:15:22;-16015.53;;;-5.49;100.00
3590;BME280;1809;48.470;9.226;2024-01-10T01:17:47;-16016.66;;;-5.45;100.00
3590;BME280;1809;48.470;9.226;2024-01-10T01:20:13;-16016.09;;;-5.47;100.00
3590;BME280;1809;48.470;9.226;2024-01-10T01:22:38;-16016.66;;;-5.45;100.00
3590;BME280;1809;48.470;9.226;2024-01-10T01:25:04;-16018.63;;;-5.37;100.00
3590;BME280;1809;48.470;9.226;2024-01-10T01:27:29;-16017.78;;;-5.40;100.00
3590;BME280;1809;48.470;9.226;2024-01-10T01:29:54;-16018.34;;;-5.38;100.00
3590;BME280;1809;48.470;9.226;2024-01-10T01:32:20;-16018.78;;;-5.37;100.00
3590;BME280;1809;48.470;9.226;2024-01-10T01:34:45;-16019.78;;;-5.33;100.00
3590;BME280;1809;48.470;9.226;2024-01-10T01:37:10;-16020.63;;;-5.30;100.00
3590;BME280;1809;48.470;9.226;2024-01-10T01:39:36;-16020.75;;;-5.30;100.00
3590;BME280;1809;48.470;9.226;2024-01-10T01:42:01;-16021.75;;;-5.26;100.00
3590;BME280;1809;48.470;9.226;2024-01-10T01:44:27;-16023.44;;;-5.20;100.00
3590;BME280;1809;48.470;9.226;2024-01-10T01:46:52;-16023.88;;;-5.19;100.00
3590;BME280;1809;48.470;9.226;2024-01-10T01:49:18;-16023.72;;;-5.19;100.00
3590;BME280;1809;48.470;9.226;2024-01-10T01:51:43;-16024.00;;;-5.18;100.00
3590;BME280;1809;48.470;9.226;2024-01-10T01:54:09;-16023.16;;;-5.21;100.00
3590;BME280;1809;48.470;9.226;2024-01-10T01:56:38;-16024.00;;;-5.18;100.00
3590;BME280;1809;48.470;9.226;2024-01-10T01:59:04;-16022.31;;;-5.24;100.00
3590;BME280;1809;48.470;9.226;2024-01-10T02:01:30;-16024.44;;;-5.17;100.00
3590;BME280;1809;48.470;9.226;2024-01-10T02:03:55;-16026.84;;;-5.08;100.00
3590;BME280;1809;48.470;9.226;2024-01-10T02:06:21;-16027.38;;;-5.06;100.00
3590;BME280;1809;48.470;9.226;2024-01-10T02:08:47;-16028.81;;;-5.01;100.00
3590;BME280;1809;48.470;9.226;2024-01-10T02:11:12;-16027.97;;;-5.04;100.00
3590;BME280;1809;48.470;9.226;2024-01-10T02:13:38;-16028.66;;;-5.02;100.00
3590;BME280;1809;48.470;9.226;2024-01-10T02:16:03;-16028.09;;;-5.04;100.00
3590;BME280;1809;48.470;9.226;2024-01-10T02:18:30;-16029.38;;;-4.99;100.00
3590;BME280;1809;48.470;9.226;2024-01-10T02:20:55;-16029.50;;;-4.99;100.00
3590;BME280;1809;48.470;9.226;2024-01-10T02:23:20;-16032.47;;;-4.88;100.00
3590;BME280;1809;48.470;9.226;2024-01-10T02:25:46;-16032.91;;;-4.86;100.00
3590;BME280;1809;48.470;9.226;2024-01-10T02:28:11;-16034.16;;;-4.82;100.00
3590;BME280;1809;48.470;9.226;2024-01-10T02:30:37;-16035.00;;;-4.79;100.00
3590;BME280;1809;48.470;9.226;2024-01-10T02:33:03;-16036.69;;;-4.73;100.00
3590;BME280;1809;48.470;9.226;2024-01-10T02:35:28;-16038.69;;;-4.66;100.00
3590;BME280;1809;48.470;9.226;2024-01-10T02:37:54;-16037.28;;;-4.71;100.00
3590;BME280;1809;48.470;9.226;2024-01-10T02:40:20;-16037.84;;;-4.69;100.00
3590;BME280;1809;48.470;9.226;2024-01-10T02:42:46;-16038.69;;;-4.66;100.00
3590;BME280;1809;48.470;9.226;2024-01-10T02:45:11;-16041.50;;;-4.56;100.00
3590;BME280;1809;48.470;9.226;2024-01-10T02:47:37;-16040.22;;;-4.60;100.00
3590;BME280;1809;48.470;9.226;2024-01-10T02:50:04;-16041.78;;;-4.55;100.00
3590;BME280;1809;48.470;9.226;2024-01-10T02:52:29;-16042.63;;;-4.52;100.00
3590;BME280;1809;48.470;9.226;2024-01-10T02:54:54;-16042.34;;;-4.53;100.00
3590;BME280;1809;48.470;9.226;2024-01-10T02:57:20;-16041.50;;;-4.56;100.00
3590;BME280;1809;48.470;9.226;2024-01-10T02:59:45;-16046.44;;;-4.38;100.00
3590;BME280;1809;48.470;9.226;2024-01-10T03:02:10;-16047.44;;;-4.35;100.00
3590;BME280;1809;48.470;9.226;2024-01-10T03:04:37;-16046.59;;;-4.38;100.00
3590;BME280;1809;48.470;9.226;2024-01-10T03:07:02;-16044.88;;;-4.44;100.00
3590;BME280;1809;48.470;9.226;2024-01-10T03:09:28;-16041.22;;;-4.57;100.00
3590;BME280;1809;48.470;9.226;2024-01-10T03:11:53;-16041.66;;;-4.55;100.00
3590;BME280;1809;48.470;9.226;2024-01-10T03:14:18;-16039.53;;;-4.63;100.00
3590;BME280;1809;48.470;9.226;2024-01-10T03:16:44;-16039.81;;;-4.62;100.00
3590;BME280;1809;48.470;9.226;2024-01-10T03:19:11;-16038.97;;;-4.65;100.00
3590;BME280;1809;48.470;9.226;2024-01-10T03:21:36;-16038.13;;;-4.68;100.00
3590;BME280;1809;48.470;9.226;2024-01-10T03:24:01;-16037.13;;;-4.71;100.00
3590;BME280;1809;48.470;9.226;2024-01-10T03:26:28;-16038.13;;;-4.68;100.00
3590;BME280;1809;48.470;9.226;2024-01-10T03:28:55;-16038.69;;;-4.66;100.00
3590;BME280;1809;48.470;9.226;2024-01-10T03:31:21;-16040.66;;;-4.59;100.00
3590;BME280;1809;48.470;9.226;2024-01-10T03:33:46;-16044.03;;;-4.47;100.00
3590;BME280;1809;48.470;9.226;2024-01-10T03:36:15;-16045.44;;;-4.42;100.00
3590;BME280;1809;48.470;9.226;2024-01-10T03:38:41;-16045.44;;;-4.42;100.00
3590;BME280;1809;48.470;9.226;2024-01-10T03:41:07;-16046.03;;;-4.40;100.00
3590;BME280;1809;48.470;9.226;2024-01-10T03:43:32;-16046.88;;;-4.37;100.00
3590;BME280;1809;48.470;9.226;2024-01-10T03:53:06;-16047.16;;;-4.36;100.00
3590;BME280;1809;48.470;9.226;2024-01-10T03:55:32;-16045.19;;;-4.43;100.00
3590;BME280;1809;48.470;9.226;2024-01-10T03:57:57;-16045.88;;;-4.40;100.00
3590;BME280;1809;48.470;9.226;2024-01-10T04:00:23;-16045.31;;;-4.42;100.00
3590;BME280;1809;48.470;9.226;2024-01-10T04:02:48;-16046.31;;;-4.39;100.00
3590;BME280;1809;48.470;9.226;2024-01-10T04:05:14;-16050.25;;;-4.24;100.00
3590;BME280;1809;48.470;9.226;2024-01-10T04:07:40;-16049.81;;;-4.26;100.00
3590;BME280;1809;48.470;9.226;2024-01-10T04:10:09;-16049.41;;;-4.27;100.00
3590;BME280;1809;48.470;9.226;2024-01-10T04:12:38;-16051.38;;;-4.20;100.00
3590;BME280;1809;48.470;9.226;2024-01-10T04:15:05;-16049.41;;;-4.27;100.00
3590;BME280;1809;48.470;9.226;2024-01-10T04:17:30;-16048.97;;;-4.29;100.00
3590;BME280;1809;48.470;9.226;2024-01-10T04:19:56;-16049.81;;;-4.26;100.00
3590;BME280;1809;48.470;9.226;2024-01-10T04:22:23;-16049.13;;;-4.28;100.00
3590;BME280;1809;48.470;9.226;2024-01-10T04:24:49;-16048.00;;;-4.32;100.00
3590;BME280;1809;48.470;9.226;2024-01-10T04:27:15;-16049.41;;;-4.27;100.00
3590;BME280;1809;48.470;9.226;2024-01-10T04:29:40;-16050.13;;;-4.25;100.00
3590;BME280;1809;48.470;9.226;2024-01-10T04:32:06;-16053.94;;;-4.11;100.00
3590;BME280;1809;48.470;9.226;2024-01-10T04:34:31;-16052.94;;;-4.15;100.00
3590;BME280;1809;48.470;9.226;2024-01-10T04:36:57;-16051.38;;;-4.20;100.00
3590;BME280;1809;48.470;9.226;2024-01-10T04:39:22;-16052.94;;;-4.15;100.00
3590;BME280;1809;48.470;9.226;2024-01-10T04:41:48;-16056.19;;;-4.03;100.00
3590;BME280;1809;48.470;9.226;2024-01-10T04:44:14;-16055.06;;;-4.07;100.00
3590;BME280;1809;48.470;9.226;2024-01-10T04:46:39;-16055.34;;;-4.06;100.00
3590;BME280;1809;48.470;9.226;2024-01-10T04:49:06;-16057.31;;;-3.99;100.00
3590;BME280;1809;48.470;9.226;2024-01-10T04:51:31;-16055.63;;;-4.05;100.00
3590;BME280;1809;48.470;9.226;2024-01-10T04:53:57;-16057.03;;;-4.00;100.00
3590;BME280;1809;48.470;9.226;2024-01-10T04:56:23;-16062.25;;;-3.82;100.00
3590;BME280;1809;48.470;9.226;2024-01-10T04:58:48;-16060.56;;;-3.88;100.00
3590;BME280;1809;48.470;9.226;2024-01-10T05:01:14;-16062.38;;;-3.81;100.00
3590;BME280;1809;48.470;9.226;2024-01-10T05:03:40;-16061.81;;;-3.83;100.00
3590;BME280;1809;48.470;9.226;2024-01-10T05:06:05;-16060.13;;;-3.89;100.00
3590;BME280;1809;48.470;9.226;2024-01-10T05:08:31;-16058.84;;;-3.94;100.00
3590;BME280;1809;48.470;9.226;2024-01-10T05:10:56;-16058.44;;;-3.95;100.00
3590;BME280;1809;48.470;9.226;2024-01-10T05:13:22;-16058.44;;;-3.95;100.00
3590;BME280;1809;48.470;9.226;2024-01-10T05:15:47;-16058.28;;;-3.96;100.00
3590;BME280;1809;48.470;9.226;2024-01-10T05:18:13;-16059.00;;;-3.93;100.00
3590;BME280;1809;48.470;9.226;2024-01-10T05:20:38;-16059.00;;;-3.93;100.00
3590;BME280;1809;48.470;9.226;2024-01-10T05:23:04;-16057.03;;;-4.00;100.00
3590;BME280;1809;48.470;9.226;2024-01-10T05:25:29;-16057.03;;;-4.00;100.00
3590;BME280;1809;48.470;9.226;2024-01-10T05:27:55;-16056.03;;;-4.04;100.00
3590;BME280;1809;48.470;9.226;2024-01-10T05:30:20;-16055.63;;;-4.05;100.00
3590;BME280;1809;48.470;9.226;2024-01-10T05:32:45;-16055.75;;;-4.05;100.00
3590;BME280;1809;48.470;9.226;2024-01-10T05:35:11;-16056.31;;;-4.03;100.00
3590;BME280;1809;48.470;9.226;2024-01-10T05:37:36;-16054.78;;;-4.08;100.00
3590;BME280;1809;48.470;9.226;2024-01-10T05:40:03;-16053.06;;;-4.14;100.00
3590;BME280;1809;48.470;9.226;2024-01-10T05:42:30;-16053.63;;;-4.12;100.00
3590;BME280;1809;48.470;9.226;2024-01-10T05:44:55;-16052.78;;;-4.15;100.00
3590;BME280;1809;48.470;9.226;2024-01-10T05:47:21;-16049.69;;;-4.26;100.00
3590;BME280;1809;48.470;9.226;2024-01-10T05:49:46;-16050.69;;;-4.23;100.00
3590;BME280;1809;48.470;9.226;2024-01-10T05:52:12;-16049.56;;;-4.27;100.00
3590;BME280;1809;48.470;9.226;2024-01-10T05:54:38;-16047.72;;;-4.33;100.00
3590;BME280;1809;48.470;9.226;2024-01-10T05:57:04;-16047.44;;;-4.35;100.00
3590;BME280;1809;48.470;9.226;2024-01-10T05:59:29;-16046.16;;;-4.39;100.00
3590;BME280;1809;48.470;9.226;2024-01-10T06:01:56;-16042.63;;;-4.52;100.00
3590;BME280;1809;48.470;9.226;2024-01-10T06:04:22;-16041.38;;;-4.56;100.00
3590;BME280;1809;48.470;9.226;2024-01-10T06:06:48;-16042.91;;;-4.51;100.00
3590;BME280;1809;48.470;9.226;2024-01-10T06:09:13;-16041.66;;;-4.55;100.00
3590;BME280;1809;48.470;9.226;2024-01-10T06:11:41;-16042.78;;;-4.51;100.00
3590;BME280;1809;48.470;9.226;2024-01-10T06:14:07;-16042.50;;;-4.52;100.00
3590;BME280;1809;48.470;9.226;2024-01-10T06:16:32;-16040.09;;;-4.61;100.00
3590;BME280;1809;48.470;9.226;2024-01-10T06:18:58;-16043.47;;;-4.49;100.00
3590;BME280;1809;48.470;9.226;2024-01-10T06:21:23;-16043.63;;;-4.48;100.00
3590;BME280;1809;48.470;9.226;2024-01-10T06:23:49;-16039.53;;;-4.63;100.00
3590;BME280;1809;48.470;9.226;2024-01-10T06:26:14;-16037.97;;;-4.68;100.00
3590;BME280;1809;48.470;9.226;2024-01-10T06:28:40;-16033.88;;;-4.83;100.00
3590;BME280;1809;48.470;9.226;2024-01-10T06:31:06;-16031.06;;;-4.93;100.00
3590;BME280;1809;48.470;9.226;2024-01-10T06:33:31;-16027.25;;;-5.07;100.00
3590;BME280;1809;48.470;9.226;2024-01-10T06:35:57;-16026.25;;;-5.10;100.00
3590;BME280;1809;48.470;9.226;2024-01-10T06:38:23;-16024.00;;;-5.18;100.00
3590;BME280;1809;48.470;9.226;2024-01-10T06:40:49;-16023.44;;;-5.20;100.00
3590;BME280;1809;48.470;9.226;2024-01-10T06:43:15;-16025.69;;;-5.12;100.00
3590;BME280;1809;48.470;9.226;2024-01-10T06:45:41;-16024.00;;;-5.18;100.00
3590;BME280;1809;48.470;9.226;2024-01-10T06:48:07;-16025.97;;;-5.11;100.00
3590;BME280;1809;48.470;9.226;2024-01-10T06:50:33;-16029.78;;;-4.98;100.00
3590;BME280;1809;48.470;9.226;2024-01-10T06:52:59;-16028.53;;;-5.02;100.00
3590;BME280;1809;48.470;9.226;2024-01-10T06:55:24;-16027.53;;;-5.06;100.00
3590;BME280;1809;48.470;9.226;2024-01-10T06:57:51;-16028.25;;;-5.03;100.00
3590;BME280;1809;48.470;9.226;2024-01-10T07:00:19;-16027.69;;;-5.05;100.00
3590;BME280;1809;48.470;9.226;2024-01-10T07:02:46;-16025.56;;;-5.13;100.00
3590;BME280;1809;48.470;9.226;2024-01-10T07:05:11;-16024.28;;;-5.17;100.00
3590;BME280;1809;48.470;9.226;2024-01-10T07:07:37;-16024.28;;;-5.17;100.00
3590;BME280;1809;48.470;9.226;2024-01-10T07:10:03;-13287.44;;;-5.14;100.00
3590;BME280;1809;48.470;9.226;2024-01-10T07:12:32;-8499.97;;;-5.06;100.00
3590;BME280;1809;48.470;9.226;2024-01-10T07:14:58;-4394.97;;;-4.98;100.00
3590;BME280;1809;48.470;9.226;2024-01-10T07:17:23;15438.75;;;-4.17;100.00
3590;BME280;1809;48.470;9.226;2024-01-10T07:19:49;37738.41;;;-3.50;100.00
3590;BME280;1809;48.470;9.226;2024-01-10T07:22:15;39700.19;;;-3.68;100.00
3590;BME280;1809;48.470;9.226;2024-01-10T07:24:40;45657.75;;;-3.24;100.00
3590;BME280;1809;48.470;9.226;2024-01-10T07:27:06;45000.22;;;-3.21;100.00
3590;BME280;1809;48.470;9.226;2024-01-10T07:29:34;34447.88;;;-3.57;100.00
3590;BME280;1809;48.470;9.226;2024-01-10T07:31:59;24271.53;;;-3.85;100.00
3590;BME280;1809;48.470;9.226;2024-01-10T07:34:25;12832.00;;;-4.06;100.00
3590;BME280;1809;48.470;9.226;2024-01-10T07:36:50;3714.72;;;-4.21;100.00
3590;BME280;1809;48.470;9.226;2024-01-10T07:39:16;-4076.78;;;-4.30;100.00
3590;BME280;1809;48.470;9.226;2024-01-10T07:41:44;-9543.84;;;-4.30;100.00
3590;BME280;1809;48.470;9.226;2024-01-10T07:44:09;-14344.88;;;-4.31;100.00
3590;BME280;1809;48.470;9.226;2024-01-10T07:46:35;-16046.31;;;-4.39;100.00
3590;BME280;1809;48.470;9.226;2024-01-10T07:49:03;-16044.19;;;-4.46;100.00
3590;BME280;1809;48.470;9.226;2024-01-10T07:51:29;-16042.63;;;-4.52;100.00
3590;BME280;1809;48.470;9.226;2024-01-10T07:53:55;-16040.94;;;-4.58;100.00
3590;BME280;1809;48.470;9.226;2024-01-10T07:56:21;-16042.78;;;-4.51;100.00
3590;BME280;1809;48.470;9.226;2024-01-10T07:58:47;-16043.47;;;-4.49;100.00
3590;BME280;1809;48.470;9.226;2024-01-10T08:01:12;-16041.06;;;-4.57;100.00
3590;BME280;1809;48.470;9.226;2024-01-10T08:03:37;-16043.19;;;-4.50;100.00
3590;BME280;1809;48.470;9.226;2024-01-10T08:06:03;-16042.06;;;-4.54;100.00
3590;BME280;1809;48.470;9.226;2024-01-10T08:08:28;-16039.25;;;-4.64;100.00
3590;BME280;1809;48.470;9.226;2024-01-10T08:10:56;-16039.25;;;-4.64;100.00
3590;BME280;1809;48.470;9.226;2024-01-10T08:13:21;-16037.84;;;-4.69;100.00
3590;BME280;1809;48.470;9.226;2024-01-10T08:15:47;-16036.69;;;-4.73;100.00
3590;BME280;1809;48.470;9.226;2024-01-10T08:18:12;-16035.28;;;-4.78;100.00
3590;BME280;1809;48.470;9.226;2024-01-10T08:20:39;-16037.69;;;-4.69;100.00
3590;BME280;1809;48.470;9.226;2024-01-10T08:23:05;-16038.81;;;-4.65;100.00
3590;BME280;1809;48.470;9.226;2024-01-10T08:25:30;-16039.38;;;-4.63;100.00
3590;BME280;1809;48.470;9.226;2024-01-10T08:27:56;-16040.09;;;-4.61;100.00
3590;BME280;1809;48.470;9.226;2024-01-10T08:30:23;-16040.38;;;-4.60;100.00
3590;BME280;1809;48.470;9.226;2024-01-10T08:32:49;-15004.44;;;-4.49;100.00
3590;BME280;1809;48.470;9.226;2024-01-10T08:35:15;-15615.03;;;-4.49;100.00
3590;BME280;1809;48.470;9.226;2024-01-10T08:37:40;-16011.31;;;-4.49;100.00
3590;BME280;1809;48.470;9.226;2024-01-10T08:40:10;-15713.41;;;-4.40;100.00
3590;BME280;1809;48.470;9.226;2024-01-10T08:42:38;-16049.41;;;-4.27;100.00
3590;BME280;1809;48.470;9.226;2024-01-10T08:45:04;-16049.41;;;-4.27;100.00
3590;BME280;1809;48.470;9.226;2024-01-10T08:47:29;-16046.59;;;-4.38;100.00
3590;BME280;1809;48.470;9.226;2024-01-10T08:49:58;-16047.16;;;-4.36;100.00
3590;BME280;1809;48.470;9.226;2024-01-10T08:52:24;-16047.56;;;-4.34;100.00
3590;BME280;1809;48.470;9.226;2024-01-10T08:54:49;-16044.31;;;-4.46;100.00
3590;BME280;1809;48.470;9.226;2024-01-10T08:57:14;-16045.19;;;-4.43;100.00
3590;BME280;1809;48.470;9.226;2024-01-10T08:59:43;-16046.88;;;-4.37;100.00
3590;BME280;1809;48.470;9.226;2024-01-10T09:02:09;-16046.59;;;-4.38;100.00
3590;BME280;1809;48.470;9.226;2024-01-10T09:04:34;-16050.41;;;-4.24;100.00
3590;BME280;1809;48.470;9.226;2024-01-10T09:06:59;-16051.94;;;-4.18;100.00
3590;BME280;1809;48.470;9.226;2024-01-10T09:09:25;-16056.31;;;-4.03;100.00
3590;BME280;1809;48.470;9.226;2024-01-10T09:11:50;-16058.28;;;-3.96;100.00
3590;BME280;1809;48.470;9.226;2024-01-10T09:14:16;-16061.69;;;-3.84;100.00
3590;BME280;1809;48.470;9.226;2024-01-10T09:16:41;-16066.34;;;-3.67;100.00
3590;BME280;1809;48.470;9.226;2024-01-10T09:19:06;-16072.97;;;-3.43;100.00
3590;BME280;1809;48.470;9.226;2024-01-10T09:21:32;-16086.66;;;-2.94;100.00
3590;BME280;1809;48.470;9.226;2024-01-10T09:23:57;-16087.22;;;-2.92;100.00
3590;BME280;1809;48.470;9.226;2024-01-10T09:26:23;-16099.34;;;-2.49;100.00
3590;BME280;1809;48.470;9.226;2024-01-10T09:28:48;-16102.88;;;-2.36;100.00
3590;BME280;1809;48.470;9.226;2024-01-10T09:31:14;-16099.63;;;-2.48;100.00
3590;BME280;1809;48.470;9.226;2024-01-10T09:33:40;-16094.84;;;-2.65;100.00
3590;BME280;1809;48.470;9.226;2024-01-10T09:36:06;-16094.84;;;-2.65;100.00
3590;BME280;1809;48.470;9.226;2024-01-10T09:38:35;-16092.72;;;-2.73;100.00
3590;BME280;1809;48.470;9.226;2024-01-10T09:41:03;-16095.69;;;-2.62;100.00
3590;BME280;1809;48.470;9.226;2024-01-10T09:43:32;-16098.78;;;-2.51;100.00
3590;BME280;1809;48.470;9.226;2024-01-10T09:46:01;-16096.38;;;-2.59;100.00
3590;BME280;1809;48.470;9.226;2024-01-10T09:48:30;-16099.63;;;-2.48;100.00
3590;BME280;1809;48.470;9.226;2024-01-10T09:50:56;-16103.56;;;-2.34;100.00
3590;BME280;1809;48.470;9.226;2024-01-10T09:53:23;-16103.72;;;-2.33;100.00
3590;BME280;1809;48.470;9.226;2024-01-10T09:55:49;-16103.44;;;-2.34;100.00
3590;BME280;1809;48.470;9.226;2024-01-10T09:58:14;-16101.03;;;-2.43;100.00
3590;BME280;1809;48.470;9.226;2024-01-10T10:00:40;-16106.41;;;-2.24;100.00
3590;BME280;1809;48.470;9.226;2024-01-10T10:03:10;-16107.53;;;-2.20;100.00
3590;BME280;1809;48.470;9.226;2024-01-10T10:05:37;-16109.34;;;-2.13;100.00
3590;BME280;1809;48.470;9.226;2024-01-10T10:08:06;-16108.50;;;-2.16;100.00
3590;BME280;1809;48.470;9.226;2024-01-10T10:10:31;-16110.22;;;-2.10;100.00
3590;BME280;1809;48.470;9.226;2024-01-10T10:12:58;-16117.41;;;-1.84;100.00
3590;BME280;1809;48.470;9.226;2024-01-10T10:15:26;-16123.03;;;-1.64;100.00
3590;BME280;1809;48.470;9.226;2024-01-10T10:17:52;-16127.28;;;-1.49;100.00
3590;BME280;1809;48.470;9.226;2024-01-10T10:23:11;-16126.00;;;-1.53;100.00
3590;BME280;1809;48.470;9.226;2024-01-10T10:25:45;-16121.63;;;-1.69;100.00
3590;BME280;1809;48.470;9.226;2024-01-10T10:28:10;-16130.09;;;-1.39;100.00
3590;BME280;1809;48.470;9.226;2024-01-10T10:30:36;-16124.44;;;-1.59;100.00
3590;BME280;1809;48.470;9.226;2024-01-10T10:33:02;-16129.25;;;-1.42;100.00
3590;BME280;1809;48.470;9.226;2024-01-10T10:35:28;-16135.59;;;-1.19;100.00
3590;BME280;1809;48.470;9.226;2024-01-10T10:37:54;-16135.72;;;-1.19;100.00
3590;BME280;1809;48.470;9.226;2024-01-10T10:40:22;-16130.38;;;-1.38;100.00
3590;BME280;1809;48.470;9.226;2024-01-10T10:42:55;-16132.78;;;-1.29;100.00
3590;BME280;1809;48.470;9.226;2024-01-10T10:45:22;-16127.28;;;-1.49;100.00
3590;BME280;1809;48.470;9.226;2024-01-10T10:47:59;-16132.06;;;-1.32;100.00
3590;BME280;1809;48.470;9.226;2024-01-10T10:50:28;-16137.00;;;-1.14;100.00
3590;BME280;1809;48.470;9.226;2024-01-10T10:52:55;-16141.09;;;-0.99;100.00
3590;BME280;1809;48.470;9.226;2024-01-10T10:55:22;-16144.19;;;-0.88;100.00
3590;BME280;1809;48.470;9.226;2024-01-10T10:57:49;-16144.75;;;-0.86;100.00
3590;BME280;1809;48.470;9.226;2024-01-10T11:00:20;-16147.44;;;-0.77;100.00
3590;BME280;1809;48.470;9.226;2024-01-10T11:02:47;-16150.53;;;-0.66;100.00
3590;BME280;1809;48.470;9.226;2024-01-10T11:05:13;-16153.22;;;-0.56;100.00
3590;BME280;1809;48.470;9.226;2024-01-10T11:07:40;-16152.78;;;-0.58;100.00
3590;BME280;1809;48.470;9.226;2024-01-10T11:10:15;-16153.63;;;-0.55;100.00
3590;BME280;1809;48.470;9.226;2024-01-10T11:13:09;-16154.19;;;-0.52;100.00
3590;BME280;1809;48.470;9.226;2024-01-10T11:25:19;-16156.16;;;-0.45;100.00
3590;BME280;1809;48.470;9.226;2024-01-10T11:27:44;-16161.09;;;-0.28;100.00
3590;BME280;1809;48.470;9.226;2024-01-10T11:30:12;-16166.19;;;-0.10;100.00
3590;BME280;1809;48.470;9.226;2024-01-10T11:32:38;-16165.91;;;-0.11;100.00
3590;BME280;1809;48.470;9.226;2024-01-10T11:35:21;-16162.78;;;-0.22;100.00
3590;BME280;1809;48.470;9.226;2024-01-10T11:37:47;-16163.94;;;-0.18;100.00
3590;BME280;1809;48.470;9.226;2024-01-10T11:40:15;-16161.94;;;-0.25;100.00
3590;BME280;1809;48.470;9.226;2024-01-10T11:42:46;-16164.06;;;-0.17;100.00
3590;BME280;1809;48.470;9.226;2024-01-10T11:45:39;-16165.19;;;-0.13;100.00
3590;BME280;1809;48.470;9.226;2024-01-10T11:48:15;-16159.84;;;-0.32;100.00
3590;BME280;1809;48.470;9.226;2024-01-10T11:50:42;-16164.06;;;-0.17;100.00
3590;BME280;1809;48.470;9.226;2024-01-10T11:53:07;-16165.63;;;-0.12;100.00
3590;BME280;1809;48.470;9.226;2024-01-10T11:55:51;-16166.75;;;-0.08;100.00
3590;BME280;1809;48.470;9.226;2024-01-10T11:58:19;-16166.03;;;-0.10;100.00
3590;BME280;1809;48.470;9.226;2024-01-10T12:00:46;-16163.63;;;-0.19;100.00
3590;BME280;1809;48.470;9.226;2024-01-10T12:03:12;-16165.63;;;-0.12;100.00
3590;BME280;1809;48.470;9.226;2024-01-10T12:05:39;-16169.13;;;0.01;100.00
3590;BME280;1809;48.470;9.226;2024-01-10T12:08:08;-16172.53;;;0.13;100.00
3590;BME280;1809;48.470;9.226;2024-01-10T12:10:34;-16174.22;;;0.19;100.00
3590;BME280;1809;48.470;9.226;2024-01-10T12:13:03;-16174.34;;;0.20;100.00
3590;BME280;1809;48.470;9.226;2024-01-10T12:15:29;-16174.06;;;0.19;100.00
3590;BME280;1809;48.470;9.226;2024-01-10T12:17:55;-16175.19;;;0.23;100.00
3590;BME280;1809;48.470;9.226;2024-01-10T12:20:20;-16174.63;;;0.21;100.00
3590;BME280;1809;48.470;9.226;2024-01-10T12:22:46;-16176.75;;;0.28;100.00
3590;BME280;1809;48.470;9.226;2024-01-10T12:25:11;-16174.63;;;0.21;100.00
3590;BME280;1809;48.470;9.226;2024-01-10T12:27:37;-16174.63;;;0.21;100.00
3590;BME280;1809;48.470;9.226;2024-01-10T12:30:02;-16172.66;;;0.14;100.00
3590;BME280;1809;48.470;9.226;2024-01-10T12:32:28;-16177.59;;;0.31;100.00
3590;BME280;1809;48.470;9.226;2024-01-10T12:35:04;-16179.28;;;0.37;100.00
3590;BME280;1809;48.470;9.226;2024-01-10T12:37:32;-16177.31;;;0.30;100.00
3590;BME280;1809;48.470;9.226;2024-01-10T12:39:58;-16182.25;;;0.48;100.00
3590;BME280;1809;48.470;9.226;2024-01-10T12:42:24;-16183.94;;;0.54;100.00
3590;BME280;1809;48.470;9.226;2024-01-10T12:44:49;-16182.81;;;0.50;100.00
3590;BME280;1809;48.470;9.226;2024-01-10T12:47:19;-16182.25;;;0.48;100.00
3590;BME280;1809;48.470;9.226;2024-01-10T12:49:45;-16184.22;;;0.55;100.00
3590;BME280;1809;48.470;9.226;2024-01-10T12:52:12;-16183.78;;;0.53;100.00
3590;BME280;1809;48.470;9.226;2024-01-10T12:54:39;-16184.78;;;0.57;100.00
3590;BME280;1809;48.470;9.226;2024-01-10T12:57:04;-16181.69;;;0.46;100.00
3590;BME280;1809;48.470;9.226;2024-01-10T12:59:30;-16179.28;;;0.37;100.00
3590;BME280;1809;48.470;9.226;2024-01-10T13:01:55;-16183.38;;;0.52;100.00
3590;BME280;1809;48.470;9.226;2024-01-10T13:04:22;-16186.47;;;0.63;100.00
3590;BME280;1809;48.470;9.226;2024-01-10T13:06:47;-16188.44;;;0.70;100.00
3590;BME280;1809;48.470;9.226;2024-01-10T13:09:13;-16189.16;;;0.73;100.00
3590;BME280;1809;48.470;9.226;2024-01-10T13:11:38;-16187.03;;;0.65;100.00
3590;BME280;1809;48.470;9.226;2024-01-10T13:14:03;-16188.72;;;0.71;100.00
3590;BME280;1809;48.470;9.226;2024-01-10T13:16:28;-16188.31;;;0.70;100.00